createdAt,value
2023-05-18T00:04:17.371Z,17.84
2023-05-18T00:09:16.621Z,17.79
2023-05-18T00:14:15.606Z,17.80
2023-05-18T00:19:16.357Z,17.78
2023-05-18T00:24:15.945Z,17.82
2023-05-18T00:29:14.701Z,17.81
2023-05-18T00:34:16.625Z,17.71
2023-05-18T00:39:15.334Z,17.52
2023-05-18T00:44:14.147Z,17.51
2023-05-18T00:49:13.130Z,17.51
2023-05-18T00:54:13.479Z,17.50
2023-05-18T00:59:12.412Z,17.31
2023-05-18T01:04:14.360Z,17.20
2023-05-18T01:09:16.403Z,17.18
2023-05-18T01:14:19.303Z,17.04
2023-05-18T01:19:40.197Z,17.01
2023-05-18T01:24:44.614Z,17.03
2023-05-18T01:29:47.360Z,17.04
2023-05-18T01:34:46.191Z,17.08
2023-05-18T01:39:45.024Z,17.10
2023-05-18T01:44:49.828Z,17.14
2023-05-18T01:49:55.072Z,17.12
2023-05-18T01:54:57.588Z,17.13
2023-05-18T02:00:00.228Z,17.13
2023-05-18T02:04:59.285Z,17.10
2023-05-18T02:09:58.158Z,17.12
2023-05-18T02:14:58.638Z,17.17
2023-05-18T02:19:57.563Z,17.21
2023-05-18T02:24:57.011Z,17.21
2023-05-18T02:29:56.925Z,17.08
2023-05-18T02:34:57.276Z,16.90
2023-05-18T02:39:56.082Z,16.91
2023-05-18T02:44:56.328Z,16.92
2023-05-18T02:49:55.402Z,16.89
2023-05-18T02:54:56.409Z,16.91
2023-05-18T03:00:13.336Z,16.80
2023-05-18T03:05:12.259Z,16.70
2023-05-18T03:10:12.864Z,16.64
2023-05-18T03:15:13.967Z,16.62
2023-05-18T03:20:15.701Z,16.54
2023-05-18T03:25:16.613Z,16.55
2023-05-18T03:30:18.034Z,16.50
2023-05-18T03:35:17.516Z,16.49
2023-05-18T03:40:20.622Z,16.56
2023-05-18T03:45:21.294Z,16.63
2023-05-18T03:50:20.198Z,16.66
2023-05-18T03:55:21.647Z,16.75
2023-05-18T04:00:20.963Z,16.74
2023-05-18T04:05:21.100Z,16.77
2023-05-18T04:10:22.153Z,16.78
2023-05-18T04:15:20.957Z,16.87
2023-05-18T04:20:21.357Z,16.92
2023-05-18T04:25:21.541Z,16.97
2023-05-18T04:30:22.623Z,17.04
2023-05-18T04:35:22.502Z,17.01
2023-05-18T04:40:23.437Z,16.98
2023-05-18T04:45:22.994Z,17.05
2023-05-18T04:50:24.753Z,17.13
2023-05-18T04:55:28.419Z,17.20
2023-05-18T05:00:32.021Z,17.27
2023-05-18T05:05:31.293Z,17.34
2023-05-18T05:10:31.684Z,17.39
2023-05-18T05:15:32.143Z,17.47
2023-05-18T05:20:31.019Z,17.50
2023-05-18T05:25:31.673Z,17.54
2023-05-18T05:30:30.988Z,17.61
2023-05-18T05:35:31.884Z,17.69
2023-05-18T05:40:33.593Z,17.84
2023-05-18T05:45:32.937Z,17.82
2023-05-18T05:50:35.762Z,17.90
2023-05-18T05:55:41.379Z,18.01
2023-05-18T06:00:47.217Z,18.14
2023-05-18T06:05:46.513Z,18.37
2023-05-18T06:10:51.211Z,18.38
2023-05-18T06:15:50.683Z,18.40
2023-05-18T06:20:49.582Z,18.51
2023-05-18T06:25:50.919Z,18.49
2023-05-18T06:31:06.846Z,18.62
2023-05-18T06:36:28.722Z,18.69
2023-05-18T06:41:30.915Z,18.86
2023-05-18T06:46:31.840Z,19.13
2023-05-18T06:51:39.445Z,19.16
2023-05-18T06:56:39.986Z,19.30
2023-05-18T07:01:38.904Z,19.40
2023-05-18T07:06:38.443Z,19.50
2023-05-18T07:11:37.187Z,19.67
2023-05-18T07:16:37.593Z,19.84
2023-05-18T07:21:36.395Z,20.07
2023-05-18T07:26:35.144Z,20.50
2023-05-18T07:31:45.029Z,20.54
2023-05-18T07:36:52.477Z,20.56
2023-05-18T07:41:51.515Z,20.71
2023-05-18T07:46:50.405Z,20.97
2023-05-18T07:51:53.551Z,21.05
2023-05-18T07:56:52.837Z,21.23
2023-05-18T08:01:51.708Z,21.41
2023-05-18T08:06:56.393Z,21.35
2023-05-18T08:11:55.200Z,21.57
2023-05-18T08:16:54.066Z,21.71
2023-05-18T08:21:54.348Z,21.96
2023-05-18T08:26:53.273Z,22.27
2023-05-18T08:31:52.892Z,22.60
2023-05-18T08:36:53.165Z,22.95
2023-05-18T08:42:02.495Z,23.04
2023-05-18T08:47:02.059Z,23.33
2023-05-18T08:52:05.672Z,23.63
2023-05-18T08:57:12.074Z,23.94
2023-05-18T09:02:11.522Z,24.11
2023-05-18T09:07:11.776Z,24.24
2023-05-18T09:12:12.963Z,24.25
2023-05-18T09:17:12.027Z,24.68
2023-05-18T09:22:10.995Z,24.96
2023-05-18T09:27:11.191Z,25.20
2023-05-18T09:32:12.255Z,25.34
2023-05-18T09:37:11.325Z,25.40
2023-05-18T09:42:12.401Z,25.55
2023-05-18T09:47:11.793Z,25.67
2023-05-18T09:52:11.017Z,25.34
2023-05-18T09:57:14.364Z,25.92
2023-05-18T10:02:15.587Z,26.24
2023-05-18T10:07:17.387Z,26.18
2023-05-18T10:12:19.873Z,26.55
2023-05-18T10:17:18.808Z,26.67
2023-05-18T10:22:19.717Z,26.39
2023-05-18T10:27:25.474Z,26.09
2023-05-18T10:32:25.513Z,25.98
2023-05-18T10:37:25.324Z,25.93
2023-05-18T10:42:31.161Z,25.90
2023-05-18T10:47:31.040Z,26.09
2023-05-18T10:52:32.042Z,25.97
2023-05-18T10:57:40.203Z,26.08
2023-05-18T11:02:43.108Z,25.78
2023-05-18T11:07:46.431Z,25.43
2023-05-18T11:12:46.720Z,25.61
2023-05-18T11:17:45.439Z,26.08
2023-05-18T11:22:46.887Z,26.26
2023-05-18T11:27:46.731Z,27.12
2023-05-18T11:32:52.697Z,27.89
2023-05-18T11:37:51.857Z,28.19
2023-05-18T11:42:59.538Z,28.54
2023-05-18T11:48:03.051Z,28.95
2023-05-18T11:53:02.467Z,29.14
2023-05-18T11:58:02.630Z,29.50
2023-05-18T12:03:02.928Z,29.24
2023-05-18T12:08:02.046Z,29.04
2023-05-18T12:13:02.925Z,28.91
2023-05-18T12:18:01.787Z,28.12
2023-05-18T12:23:01.260Z,27.90
2023-05-18T12:28:05.284Z,27.43
2023-05-18T12:33:05.073Z,27.31
2023-05-18T12:38:05.044Z,27.11
2023-05-18T12:43:05.741Z,27.20
2023-05-18T12:48:08.731Z,27.30
2023-05-18T12:53:08.058Z,26.70
2023-05-18T12:58:17.134Z,26.91
2023-05-18T13:03:22.017Z,27.19
2023-05-18T13:08:22.517Z,27.46
2023-05-18T13:13:23.405Z,27.46
2023-05-18T13:18:23.381Z,27.41
2023-05-18T13:23:27.195Z,27.13
2023-05-18T13:28:29.700Z,26.96
2023-05-18T13:33:35.716Z,26.36
2023-05-18T13:38:37.341Z,26.31
2023-05-18T13:43:37.525Z,26.28
2023-05-18T13:48:36.492Z,26.19
2023-05-18T13:53:35.248Z,26.30
2023-05-18T13:58:33.990Z,26.31
2023-05-18T14:03:34.312Z,26.06
2023-05-18T14:08:40.553Z,26.22
2023-05-18T14:13:39.946Z,26.21
2023-05-18T14:18:40.527Z,26.11
2023-05-18T14:23:39.610Z,25.96
2023-05-18T14:28:38.781Z,26.20
2023-05-18T14:33:37.906Z,26.27
2023-05-18T14:38:40.941Z,26.18
2023-05-18T14:43:39.704Z,26.28
2023-05-18T14:48:41.306Z,26.29
2023-05-18T14:53:42.179Z,26.41
2023-05-18T14:58:41.523Z,26.35
2023-05-18T15:03:40.421Z,26.58
2023-05-18T15:08:39.462Z,26.64
2023-05-18T15:13:40.739Z,26.27
2023-05-18T15:18:39.802Z,26.24
2023-05-18T15:23:39.111Z,26.32
2023-05-18T15:28:41.683Z,26.47
2023-05-18T15:33:43.517Z,26.11
2023-05-18T15:38:45.432Z,26.01
2023-05-18T15:43:46.782Z,25.45
2023-05-18T15:48:46.053Z,25.24
2023-05-18T15:53:44.917Z,25.13
2023-05-18T15:58:45.570Z,25.02
2023-05-18T16:03:44.628Z,25.03
2023-05-18T16:08:45.931Z,24.87
2023-05-18T16:13:47.823Z,24.86
2023-05-18T16:18:46.879Z,24.87
2023-05-18T16:23:46.683Z,24.79
2023-05-18T16:28:46.829Z,24.65
2023-05-18T16:33:45.734Z,24.49
2023-05-18T16:38:53.086Z,24.22
2023-05-18T16:43:54.554Z,24.01
2023-05-18T16:48:53.485Z,23.85
2023-05-18T16:53:52.805Z,23.82
2023-05-18T16:58:52.524Z,23.58
2023-05-18T17:03:52.908Z,23.37
2023-05-18T17:08:57.645Z,23.11
2023-05-18T17:14:00.964Z,22.74
2023-05-18T17:19:01.241Z,22.58
2023-05-18T17:24:00.156Z,22.29
2023-05-18T17:28:58.970Z,22.12
2023-05-18T17:33:57.825Z,22.03
2023-05-18T17:38:57.988Z,21.94
2023-05-18T17:43:56.744Z,21.83
2023-05-18T17:48:55.936Z,21.65
2023-05-18T17:53:56.513Z,21.53
2023-05-18T17:58:58.697Z,21.37
2023-05-18T18:03:58.918Z,21.37
2023-05-18T18:08:59.915Z,21.25
2023-05-18T18:14:02.555Z,21.10
2023-05-18T18:19:03.471Z,20.97
2023-05-18T18:24:03.110Z,20.91
2023-05-18T18:29:03.876Z,20.74
2023-05-18T18:34:04.091Z,20.54
2023-05-18T18:39:08.501Z,20.48
2023-05-18T18:44:12.928Z,20.47
2023-05-18T18:49:13.459Z,20.43
2023-05-18T18:54:15.389Z,20.23
2023-05-18T18:59:16.025Z,20.18
2023-05-18T19:04:14.931Z,20.07
2023-05-18T19:09:13.988Z,20.00
2023-05-18T19:14:12.809Z,19.87
2023-05-18T19:19:14.722Z,19.82
2023-05-18T19:24:15.448Z,19.79
2023-05-18T19:29:15.175Z,19.62
2023-05-18T19:34:15.509Z,19.65
2023-05-18T19:39:16.372Z,19.62
2023-05-18T19:44:15.894Z,19.56
2023-05-18T19:49:16.239Z,19.45
2023-05-18T19:54:15.196Z,19.25
2023-05-18T19:59:14.089Z,19.18
2023-05-18T20:04:13.111Z,19.09
2023-05-18T20:09:13.324Z,19.09
2023-05-18T20:14:12.078Z,19.06
2023-05-18T20:19:12.949Z,19.04
2023-05-18T20:24:16.062Z,19.00
2023-05-18T20:29:14.815Z,18.95
2023-05-18T20:34:28.124Z,18.84
2023-05-18T20:39:28.859Z,18.73
2023-05-18T20:44:29.534Z,18.69
2023-05-18T20:49:37.943Z,18.57
2023-05-18T20:54:38.428Z,18.49
2023-05-18T20:59:37.273Z,18.48
2023-05-18T21:04:36.250Z,18.47
2023-05-18T21:09:34.994Z,18.45
2023-05-18T21:14:40.415Z,18.48
2023-05-18T21:19:39.540Z,18.40
2023-05-18T21:24:38.499Z,18.35
2023-05-18T21:29:38.797Z,18.33
2023-05-18T21:34:37.547Z,18.29
2023-05-18T21:39:36.422Z,18.20
2023-05-18T21:44:35.236Z,18.14
2023-05-18T21:49:35.502Z,18.08
2023-05-18T21:54:35.620Z,17.95
2023-05-18T21:59:34.446Z,17.89
2023-05-18T22:04:33.363Z,17.83
2023-05-18T22:09:33.484Z,17.69
2023-05-18T22:14:32.189Z,17.54
2023-05-18T22:19:30.909Z,17.50
2023-05-18T22:24:29.649Z,17.52
2023-05-18T22:29:29.868Z,17.41
2023-05-18T22:34:28.637Z,17.41
2023-05-18T22:39:27.460Z,17.32
2023-05-18T22:44:26.225Z,17.36
2023-05-18T22:49:26.689Z,17.40
2023-05-18T22:54:25.478Z,17.42
2023-05-18T22:59:24.296Z,17.42
2023-05-18T23:04:23.113Z,17.41
2023-05-18T23:09:23.251Z,17.39
2023-05-18T23:14:22.250Z,17.31
2023-05-18T23:19:21.120Z,17.25
2023-05-18T23:24:19.965Z,17.14
2023-05-18T23:29:20.098Z,17.04
2023-05-18T23:34:19.370Z,17.02
2023-05-18T23:39:18.115Z,16.99
2023-05-18T23:44:17.438Z,16.97
2023-05-18T23:49:18.256Z,16.96
2023-05-18T23:54:17.618Z,16.95
2023-05-18T23:59:16.582Z,16.91
